Zim Chicago — A8SI9 — position and weather

sailwx.info

Track history (hours):
 
Tides and Currents Weather Stations Pressure Air Temp Water Temp Dewpoint Dewpoint Depression Visibility Wind Speed Wind Dir Waves Ship Positions

Zim Chicago

Last reported at 2014-Dec-19 03:34 UTC. Time now 2014-Dec-19 03:57 UTC.
Position N 49°13' W 126°40'.

Length 334 m; draft 11.4 m.

Type: Cargo ship. MMSI: 636014223.

Date/timePositionNaut miles runAvg speedWind from/ knotsBaromVisibWave heightAir tempDewpointWater temp
2014-Dec-19 03:34N 49°13' W 126°40'1414.0
2014-Dec-19 02:33N 49°05' W 126°23'1413.9
2014-Dec-19 01:34N 48°57' W 126°05'1414.0
2014-Dec-19 00:33N 48°49' W 125°48'1515.0
2014-Dec-18 23:34N 48°40' W 125°29'1515.0
2014-Dec-18 22:34N 48°33' W 125°10'1515.3
2014-Dec-18 21:34N 48°31' W 124°47'1515.1
2014-Dec-18 20:34N 48°26' W 124°25'1514.6
2014-Dec-18 19:33N 48°20' W 124°05'1515.0
2014-Dec-18 18:33N 48°16' W 123°43'1414.0
2014-Dec-18 17:33N 48°10' W 123°24'1615.9
2014-Dec-18 16:33N 48°12' W 123°00'1818.5
2014-Dec-18 15:33N 48°02' W 122°38'1918.8
2014-Dec-18 14:33N 47°45' W 122°26'10 9.8
2014-Dec-18 13:33N 47°36' W 122°21'1 0.5
2014-Dec-18 12:31N 47°35' W 122°21'0 0.0
2014-Dec-18 11:31N 47°35' W 122°21'0 0.0
2014-Dec-18 10:28N 47°35' W 122°21'0 0.0
2014-Dec-18 09:28N 47°35' W 122°21'0 0.0
2014-Dec-18 08:31N 47°35' W 122°21'0 0.0
2014-Dec-18 07:31N 47°35' W 122°21'0 0.0
2014-Dec-18 06:28N 47°35' W 122°21'0 0.0
2014-Dec-18 05:31N 47°35' W 122°21'0 0.0
2014-Dec-18 04:31N 47°35' W 122°21'0 0.0
2014-Dec-18 03:31N 47°35' W 122°21'0 0.0
2014-Dec-18 02:31N 47°35' W 122°21'0 0.0
2014-Dec-18 01:31N 47°35' W 122°21'0 0.0
2014-Dec-18 00:31N 47°35' W 122°21'0 0.0
2014-Dec-17 23:31N 47°35' W 122°21'0 0.0
2014-Dec-17 22:31N 47°35' W 122°21'0 0.0
2014-Dec-17 21:31N 47°35' W 122°21'0 0.0
2014-Dec-17 20:31N 47°35' W 122°21'0 0.0
2014-Dec-17 19:31N 47°35' W 122°21'0 0.0
2014-Dec-17 18:31N 47°35' W 122°21'0 0.0
2014-Dec-17 17:31N 47°35' W 122°21'0 0.0
2014-Dec-17 16:31N 47°35' W 122°21'0 0.0
2014-Dec-17 15:31N 47°35' W 122°21'0 0.0
2014-Dec-17 14:31N 47°35' W 122°21'0 0.0
2014-Dec-17 13:31N 47°35' W 122°21'0 0.0
2014-Dec-17 12:31N 47°35' W 122°21'0 0.0
2014-Dec-17 11:31N 47°35' W 122°21'0 0.0
2014-Dec-17 10:31N 47°35' W 122°21'0 0.0
2014-Dec-17 09:31N 47°35' W 122°21'0 0.0
2014-Dec-17 08:31N 47°35' W 122°21'0 0.0
2014-Dec-17 07:31N 47°35' W 122°21'0 0.0
2014-Dec-17 06:31N 47°35' W 122°21'0 0.0
2014-Dec-17 05:31N 47°35' W 122°21'0 0.0
2014-Dec-17 04:31N 47°35' W 122°21'0 0.0
2014-Dec-17 03:31N 47°35' W 122°21'0 0.0
2014-Dec-17 02:31N 47°35' W 122°21'0 0.0
2014-Dec-17 01:31N 47°35' W 122°21'0 0.0
2014-Dec-17 00:31N 47°35' W 122°21'0 0.0
2014-Dec-16 23:31N 47°35' W 122°21'0 0.0
2014-Dec-16 22:31N 47°35' W 122°21'0 0.0
2014-Dec-16 21:31N 47°35' W 122°21'0 0.0
2014-Dec-16 20:31N 47°35' W 122°21'0 0.0
2014-Dec-16 19:31N 47°35' W 122°21'0 0.0
2014-Dec-16 18:31N 47°35' W 122°21'0 0.0
2014-Dec-16 17:31N 47°35' W 122°21'0 0.0
2014-Dec-16 16:31N 47°35' W 122°21'0 0.0
2014-Dec-16 15:31N 47°35' W 122°21'0 0.0
2014-Dec-16 14:31N 47°35' W 122°21'1 0.9
2014-Dec-16 13:33N 47°36' W 122°21'8 7.8
2014-Dec-16 12:33N 47°32' W 122°31'0 0.0
2014-Dec-16 11:32N 47°32' W 122°31'0 0.1
2014-Dec-16 10:32N 47°32' W 122°31'0 0.1
2014-Dec-16 09:32N 47°32' W 122°31'0 0.1
2014-Dec-16 08:32N 47°32' W 122°31'0 0.0
2014-Dec-16 07:31N 47°32' W 122°31'0 0.0
2014-Dec-16 06:32N 47°32' W 122°31'0 0.0
2014-Dec-16 05:29N 47°32' W 122°31'0 0.2
2014-Dec-16 04:20N 47°32' W 122°31'0 0.1
2014-Dec-16 03:32N 47°32' W 122°31'0 0.1
2014-Dec-16 01:33N 47°32' W 122°31'0 0.0
2014-Dec-15 23:32N 47°32' W 122°31'0 0.1
2014-Dec-15 22:31N 47°32' W 122°31'0 0.1
2014-Dec-15 21:32N 47°32' W 122°31'0 0.0
2014-Dec-15 20:32N 47°32' W 122°31'0 0.1
2014-Dec-15 19:32N 47°32' W 122°31'0 0.0
2014-Dec-15 18:32N 47°32' W 122°31'0 0.1
2014-Dec-15 17:32N 47°32' W 122°31'0 0.1
2014-Dec-15 16:32N 47°32' W 122°31'0 0.2
2014-Dec-15 15:32N 47°32' W 122°31'0 0.1
2014-Dec-15 14:32N 47°32' W 122°31'0 0.1
2014-Dec-15 13:32N 47°32' W 122°31'0 0.1
2014-Dec-15 12:28N 47°32' W 122°31'0 0.1
2014-Dec-15 11:32N 47°32' W 122°31'0 0.0
2014-Dec-15 10:32N 47°32' W 122°31'0 0.1
2014-Dec-15 09:32N 47°32' W 122°31'0 0.1
2014-Dec-15 08:31N 47°32' W 122°31'0 0.1
2014-Dec-15 07:32N 47°32' W 122°31'0 0.1
2014-Dec-15 06:32N 47°32' W 122°31'0 0.1
2014-Dec-15 05:32N 47°32' W 122°31'0 0.1
2014-Dec-15 04:32N 47°32' W 122°31'0 0.2
2014-Dec-15 03:32N 47°32' W 122°31'0 0.0
2014-Dec-15 02:32N 47°32' W 122°31'0 0.0
2014-Dec-15 01:32N 47°32' W 122°31'0 0.0
2014-Dec-15 00:32N 47°32' W 122°31'0 0.0
2014-Dec-14 23:32N 47°32' W 122°31'0 0.0
2014-Dec-14 22:32N 47°32' W 122°31'0 0.1
2014-Dec-14 21:32N 47°32' W 122°31'0 0.0
2014-Dec-14 20:32N 47°32' W 122°31'0 0.0
2014-Dec-14 19:32N 47°32' W 122°31'0 0.0
2014-Dec-14 18:31N 47°32' W 122°31'0 0.1
2014-Dec-14 17:32N 47°32' W 122°31'0 0.0
2014-Dec-14 16:32N 47°32' W 122°31'0 0.0
2014-Dec-14 15:32N 47°32' W 122°31'0 0.1
2014-Dec-14 14:32N 47°32' W 122°31'0 0.0
2014-Dec-14 13:32N 47°32' W 122°31'0 0.0
2014-Dec-14 12:31N 47°32' W 122°31'0 0.0
2014-Dec-14 11:32N 47°32' W 122°31'0 0.1
2014-Dec-14 10:32N 47°32' W 122°31'0 0.1
2014-Dec-14 09:32N 47°32' W 122°31'0 0.1
2014-Dec-14 08:29N 47°32' W 122°31'0 0.1
2014-Dec-14 07:31N 47°32' W 122°31'0 0.0
2014-Dec-14 06:32N 47°32' W 122°31'0 0.1
2014-Dec-14 05:32N 47°32' W 122°31'0 0.0
2014-Dec-14 04:32N 47°32' W 122°31'0 0.1
2014-Dec-14 03:32N 47°32' W 122°31'0 0.1
2014-Dec-14 02:32N 47°32' W 122°31'0 0.0
2014-Dec-14 01:32N 47°32' W 122°31'0 0.0
2014-Dec-14 00:32N 47°32' W 122°31'0 0.0
2014-Dec-13 23:32N 47°32' W 122°31'0 0.0
2014-Dec-13 22:32N 47°32' W 122°31'0 0.1
2014-Dec-13 21:32N 47°32' W 122°31'0 0.2
2014-Dec-13 20:31N 47°32' W 122°31'0 0.1
2014-Dec-13 19:32N 47°32' W 122°31'0 0.1
2014-Dec-13 18:32N 47°32' W 122°31'0 0.0
2014-Dec-13 17:32N 47°32' W 122°31'0 0.0
2014-Dec-13 16:32N 47°32' W 122°31'0 0.1
2014-Dec-13 15:32N 47°32' W 122°31'0 0.0
2014-Dec-13 14:31N 47°32' W 122°31'0 0.0
2014-Dec-13 13:32N 47°32' W 122°31'0 0.0
2014-Dec-13 12:31N 47°32' W 122°31'0 0.1
2014-Dec-13 11:26N 47°32' W 122°31'0 0.1
2014-Dec-13 10:31N 47°32' W 122°31'0 0.0
2014-Dec-13 09:31N 47°32' W 122°31'0 0.0
2014-Dec-13 08:32N 47°32' W 122°31'0 0.0
2014-Dec-13 07:32N 47°32' W 122°31'0 0.0
2014-Dec-13 06:32N 47°32' W 122°31'0 0.0
2014-Dec-13 05:31N 47°32' W 122°31'0 0.0
2014-Dec-13 04:32N 47°32' W 122°31'0 0.0
2014-Dec-13 03:32N 47°32' W 122°31'0 0.0
2014-Dec-13 02:31N 47°32' W 122°31'0 0.0
2014-Dec-13 01:32N 47°32' W 122°31'0 0.0
2014-Dec-13 00:32N 47°32' W 122°31'0 0.0
2014-Dec-12 23:29N 47°32' W 122°31'0 0.0
2014-Dec-12 22:32N 47°32' W 122°31'0 0.0
2014-Dec-12 21:32N 47°32' W 122°31'0 0.0
2014-Dec-12 20:32N 47°32' W 122°31'0 0.0
2014-Dec-12 19:31N 47°32' W 122°31'0 0.0
2014-Dec-12 18:32N 47°32' W 122°31'0 0.1
2014-Dec-12 17:32N 47°32' W 122°31'0 0.0
2014-Dec-12 16:31N 47°32' W 122°31'0 0.0
2014-Dec-12 15:32N 47°32' W 122°31'0 0.0
2014-Dec-12 14:32N 47°32' W 122°31'0 0.0
2014-Dec-12 13:32N 47°32' W 122°31'0 0.0
2014-Dec-12 12:32N 47°32' W 122°31'0 0.0
2014-Dec-12 11:32N 47°32' W 122°31'0 0.0
2014-Dec-12 10:32N 47°32' W 122°31'0 0.0
2014-Dec-12 09:32N 47°32' W 122°31'0 0.0
2014-Dec-12 08:32N 47°32' W 122°31'0 0.0
2014-Dec-12 07:32N 47°32' W 122°31'0 0.0
2014-Dec-12 06:32N 47°32' W 122°31'0 0.1
2014-Dec-12 05:31N 47°32' W 122°31'0 0.1
2014-Dec-12 04:32N 47°32' W 122°31'0 0.1
2014-Dec-12 03:32N 47°32' W 122°31'0 0.1
2014-Dec-12 02:32N 47°32' W 122°31'0 0.1
2014-Dec-12 01:32N 47°32' W 122°31'0 0.1
2014-Dec-12 00:31N 47°32' W 122°31'0 0.1
2014-Dec-11 23:32N 47°32' W 122°31'0 0.0
2014-Dec-11 22:32N 47°32' W 122°31'0 0.1
2014-Dec-11 21:31N 47°32' W 122°31'0 0.2
2014-Dec-11 20:32N 47°32' W 122°31'0 0.1
2014-Dec-11 19:31N 47°32' W 122°31'0 0.1
2014-Dec-11 18:32N 47°32' W 122°31'0 0.0
2014-Dec-11 17:32N 47°32' W 122°31'0 0.0
2014-Dec-11 16:32N 47°32' W 122°31'0 0.0
2014-Dec-11 15:31N 47°32' W 122°31'0 0.1
2014-Dec-11 14:32N 47°32' W 122°31'0 0.1
2014-Dec-11 13:32N 47°32' W 122°31'0 0.0
2014-Dec-11 12:32N 47°32' W 122°31'0 0.1
2014-Dec-11 11:32N 47°32' W 122°31'0 0.1
2014-Dec-11 10:32N 47°32' W 122°31'0 0.0
2014-Dec-11 09:32N 47°32' W 122°31'0 0.1
2014-Dec-11 08:32N 47°32' W 122°31'0 0.0
2014-Dec-11 07:32N 47°32' W 122°31'0 0.0
2014-Dec-11 06:32N 47°32' W 122°31'0 0.0
2014-Dec-11 05:32N 47°32' W 122°31'0 0.0
2014-Dec-11 04:32N 47°32' W 122°31'0 0.0
2014-Dec-11 03:32N 47°32' W 122°31'0 0.0
2014-Dec-11 02:31N 47°32' W 122°31'0 0.1
2014-Dec-11 01:32N 47°32' W 122°31'0 0.2
2014-Dec-11 00:32N 47°32' W 122°31'0 0.0
2014-Dec-10 23:32N 47°32' W 122°31'0 0.0
2014-Dec-10 22:26N 47°32' W 122°31'0 0.0
2014-Dec-10 21:32N 47°32' W 122°31'0 0.2
2014-Dec-10 20:29N 47°32' W 122°31'0 0.0
2014-Dec-10 19:26N 47°32' W 122°31'0 0.0
2014-Dec-10 18:32N 47°32' W 122°31'0 0.0
2014-Dec-10 17:32N 47°32' W 122°31'0 0.1
2014-Dec-10 16:32N 47°32' W 122°31'0 0.0
2014-Dec-10 15:32N 47°32' W 122°31'0 0.0
2014-Dec-10 14:32N 47°32' W 122°31'0 0.0
2014-Dec-10 13:29N 47°32' W 122°31'0 0.1
2014-Dec-10 12:31N 47°32' W 122°31'0 0.0
2014-Dec-10 11:32N 47°32' W 122°31'0 0.1
2014-Dec-10 10:32N 47°32' W 122°31'0 0.1
2014-Dec-10 09:31N 47°32' W 122°31'0 0.1
2014-Dec-10 08:32N 47°32' W 122°31'0 0.0
2014-Dec-10 07:32N 47°32' W 122°31'0 0.1
2014-Dec-10 06:32N 47°32' W 122°31'0 0.0
2014-Dec-10 05:32N 47°32' W 122°31'0 0.0
2014-Dec-10 04:32N 47°32' W 122°31'0 0.0
2014-Dec-10 03:31N 47°32' W 122°31'0 0.0
2014-Dec-10 02:32N 47°32' W 122°31'0 0.0
2014-Dec-10 01:32N 47°32' W 122°31'0 0.0
2014-Dec-10 00:32N 47°32' W 122°31'0 0.0
2014-Dec-09 23:29N 47°32' W 122°31'0 0.1
2014-Dec-09 22:32N 47°32' W 122°31'0 0.0
2014-Dec-09 21:31N 47°32' W 122°31'0 0.0
2014-Dec-09 20:32N 47°32' W 122°31'0 0.0
2014-Dec-09 19:32N 47°32' W 122°31'0 0.0
2014-Dec-09 18:32N 47°32' W 122°31'0 0.0
2014-Dec-09 17:32N 47°32' W 122°31'0 0.0
2014-Dec-09 16:32N 47°32' W 122°31'0 0.0
2014-Dec-09 15:32N 47°32' W 122°31'0 0.0
2014-Dec-09 14:32N 47°32' W 122°31'0 0.0
2014-Dec-09 13:32N 47°32' W 122°31'0 0.1
2014-Dec-09 12:32N 47°32' W 122°31'0 0.1
2014-Dec-09 11:32N 47°32' W 122°31'0 0.1
2014-Dec-09 10:32N 47°32' W 122°31'0 0.2
2014-Dec-09 09:28N 47°32' W 122°31'0 0.1
2014-Dec-09 08:32N 47°32' W 122°31'0 0.1
2014-Dec-09 07:31N 47°32' W 122°31'0 0.0
2014-Dec-09 06:32N 47°32' W 122°31'0 0.1
2014-Dec-09 05:32N 47°32' W 122°31'0 0.1
2014-Dec-09 04:32N 47°32' W 122°31'  
Track history (hours):
 
Tides and Currents Weather Stations Pressure Air Temp Water Temp Dewpoint Dewpoint Depression Visibility Wind Speed Wind Dir Waves Ship Positions

Zim Chicago

Last reported at 2014-Dec-19 03:34 UTC. Time now 2014-Dec-19 03:57 UTC.
Position N 49°13' W 126°40'.

Length 334 m; draft 11.4 m.

Type: Cargo ship. MMSI: 636014223.

Date/timePositionNaut miles runAvg speedWind from/ knotsBaromVisibWave heightAir tempDewpointWater temp
2014-Dec-19 03:34N 49°13' W 126°40'1414.0
2014-Dec-19 02:33N 49°05' W 126°23'1413.9
2014-Dec-19 01:34N 48°57' W 126°05'1414.0
2014-Dec-19 00:33N 48°49' W 125°48'1515.0
2014-Dec-18 23:34N 48°40' W 125°29'1515.0
2014-Dec-18 22:34N 48°33' W 125°10'1515.3
2014-Dec-18 21:34N 48°31' W 124°47'1515.1
2014-Dec-18 20:34N 48°26' W 124°25'1514.6
2014-Dec-18 19:33N 48°20' W 124°05'1515.0
2014-Dec-18 18:33N 48°16' W 123°43'1414.0
2014-Dec-18 17:33N 48°10' W 123°24'1615.9
2014-Dec-18 16:33N 48°12' W 123°00'1818.5
2014-Dec-18 15:33N 48°02' W 122°38'1918.8
2014-Dec-18 14:33N 47°45' W 122°26'10 9.8
2014-Dec-18 13:33N 47°36' W 122°21'1 0.5
2014-Dec-18 12:31N 47°35' W 122°21'0 0.0
2014-Dec-18 11:31N 47°35' W 122°21'0 0.0
2014-Dec-18 10:28N 47°35' W 122°21'0 0.0
2014-Dec-18 09:28N 47°35' W 122°21'0 0.0
2014-Dec-18 08:31N 47°35' W 122°21'0 0.0
2014-Dec-18 07:31N 47°35' W 122°21'0 0.0
2014-Dec-18 06:28N 47°35' W 122°21'0 0.0
2014-Dec-18 05:31N 47°35' W 122°21'0 0.0
2014-Dec-18 04:31N 47°35' W 122°21'0 0.0
2014-Dec-18 03:31N 47°35' W 122°21'0 0.0
2014-Dec-18 02:31N 47°35' W 122°21'0 0.0
2014-Dec-18 01:31N 47°35' W 122°21'0 0.0
2014-Dec-18 00:31N 47°35' W 122°21'0 0.0
2014-Dec-17 23:31N 47°35' W 122°21'0 0.0
2014-Dec-17 22:31N 47°35' W 122°21'0 0.0
2014-Dec-17 21:31N 47°35' W 122°21'0 0.0
2014-Dec-17 20:31N 47°35' W 122°21'0 0.0
2014-Dec-17 19:31N 47°35' W 122°21'0 0.0
2014-Dec-17 18:31N 47°35' W 122°21'0 0.0
2014-Dec-17 17:31N 47°35' W 122°21'0 0.0
2014-Dec-17 16:31N 47°35' W 122°21'0 0.0
2014-Dec-17 15:31N 47°35' W 122°21'0 0.0
2014-Dec-17 14:31N 47°35' W 122°21'0 0.0
2014-Dec-17 13:31N 47°35' W 122°21'0 0.0
2014-Dec-17 12:31N 47°35' W 122°21'0 0.0
2014-Dec-17 11:31N 47°35' W 122°21'0 0.0
2014-Dec-17 10:31N 47°35' W 122°21'0 0.0
2014-Dec-17 09:31N 47°35' W 122°21'0 0.0
2014-Dec-17 08:31N 47°35' W 122°21'0 0.0
2014-Dec-17 07:31N 47°35' W 122°21'0 0.0
2014-Dec-17 06:31N 47°35' W 122°21'0 0.0
2014-Dec-17 05:31N 47°35' W 122°21'0 0.0
2014-Dec-17 04:31N 47°35' W 122°21'0 0.0
2014-Dec-17 03:31N 47°35' W 122°21'0 0.0
2014-Dec-17 02:31N 47°35' W 122°21'0 0.0
2014-Dec-17 01:31N 47°35' W 122°21'0 0.0
2014-Dec-17 00:31N 47°35' W 122°21'0 0.0
2014-Dec-16 23:31N 47°35' W 122°21'0 0.0
2014-Dec-16 22:31N 47°35' W 122°21'0 0.0
2014-Dec-16 21:31N 47°35' W 122°21'0 0.0
2014-Dec-16 20:31N 47°35' W 122°21'0 0.0
2014-Dec-16 19:31N 47°35' W 122°21'0 0.0
2014-Dec-16 18:31N 47°35' W 122°21'0 0.0
2014-Dec-16 17:31N 47°35' W 122°21'0 0.0
2014-Dec-16 16:31N 47°35' W 122°21'0 0.0
2014-Dec-16 15:31N 47°35' W 122°21'0 0.0
2014-Dec-16 14:31N 47°35' W 122°21'1 0.9
2014-Dec-16 13:33N 47°36' W 122°21'8 7.8
2014-Dec-16 12:33N 47°32' W 122°31'0 0.0
2014-Dec-16 11:32N 47°32' W 122°31'0 0.1
2014-Dec-16 10:32N 47°32' W 122°31'0 0.1
2014-Dec-16 09:32N 47°32' W 122°31'0 0.1
2014-Dec-16 08:32N 47°32' W 122°31'0 0.0
2014-Dec-16 07:31N 47°32' W 122°31'0 0.0
2014-Dec-16 06:32N 47°32' W 122°31'0 0.0
2014-Dec-16 05:29N 47°32' W 122°31'0 0.2
2014-Dec-16 04:20N 47°32' W 122°31'0 0.1
2014-Dec-16 03:32N 47°32' W 122°31'0 0.1
2014-Dec-16 01:33N 47°32' W 122°31'0 0.0
2014-Dec-15 23:32N 47°32' W 122°31'0 0.1
2014-Dec-15 22:31N 47°32' W 122°31'0 0.1
2014-Dec-15 21:32N 47°32' W 122°31'0 0.0
2014-Dec-15 20:32N 47°32' W 122°31'0 0.1
2014-Dec-15 19:32N 47°32' W 122°31'0 0.0
2014-Dec-15 18:32N 47°32' W 122°31'0 0.1
2014-Dec-15 17:32N 47°32' W 122°31'0 0.1
2014-Dec-15 16:32N 47°32' W 122°31'0 0.2
2014-Dec-15 15:32N 47°32' W 122°31'0 0.1
2014-Dec-15 14:32N 47°32' W 122°31'0 0.1
2014-Dec-15 13:32N 47°32' W 122°31'0 0.1
2014-Dec-15 12:28N 47°32' W 122°31'0 0.1
2014-Dec-15 11:32N 47°32' W 122°31'0 0.0
2014-Dec-15 10:32N 47°32' W 122°31'0 0.1
2014-Dec-15 09:32N 47°32' W 122°31'0 0.1
2014-Dec-15 08:31N 47°32' W 122°31'0 0.1
2014-Dec-15 07:32N 47°32' W 122°31'0 0.1
2014-Dec-15 06:32N 47°32' W 122°31'0 0.1
2014-Dec-15 05:32N 47°32' W 122°31'0 0.1
2014-Dec-15 04:32N 47°32' W 122°31'0 0.2
2014-Dec-15 03:32N 47°32' W 122°31'0 0.0
2014-Dec-15 02:32N 47°32' W 122°31'0 0.0
2014-Dec-15 01:32N 47°32' W 122°31'0 0.0
2014-Dec-15 00:32N 47°32' W 122°31'0 0.0
2014-Dec-14 23:32N 47°32' W 122°31'0 0.0
2014-Dec-14 22:32N 47°32' W 122°31'0 0.1
2014-Dec-14 21:32N 47°32' W 122°31'0 0.0
2014-Dec-14 20:32N 47°32' W 122°31'0 0.0
2014-Dec-14 19:32N 47°32' W 122°31'0 0.0
2014-Dec-14 18:31N 47°32' W 122°31'0 0.1
2014-Dec-14 17:32N 47°32' W 122°31'0 0.0
2014-Dec-14 16:32N 47°32' W 122°31'0 0.0
2014-Dec-14 15:32N 47°32' W 122°31'0 0.1
2014-Dec-14 14:32N 47°32' W 122°31'0 0.0
2014-Dec-14 13:32N 47°32' W 122°31'0 0.0
2014-Dec-14 12:31N 47°32' W 122°31'0 0.0
2014-Dec-14 11:32N 47°32' W 122°31'0 0.1
2014-Dec-14 10:32N 47°32' W 122°31'0 0.1
2014-Dec-14 09:32N 47°32' W 122°31'0 0.1
2014-Dec-14 08:29N 47°32' W 122°31'0 0.1
2014-Dec-14 07:31N 47°32' W 122°31'0 0.0
2014-Dec-14 06:32N 47°32' W 122°31'0 0.1
2014-Dec-14 05:32N 47°32' W 122°31'0 0.0
2014-Dec-14 04:32N 47°32' W 122°31'0 0.1
2014-Dec-14 03:32N 47°32' W 122°31'0 0.1
2014-Dec-14 02:32N 47°32' W 122°31'0 0.0
2014-Dec-14 01:32N 47°32' W 122°31'0 0.0
2014-Dec-14 00:32N 47°32' W 122°31'0 0.0
2014-Dec-13 23:32N 47°32' W 122°31'0 0.0
2014-Dec-13 22:32N 47°32' W 122°31'0 0.1
2014-Dec-13 21:32N 47°32' W 122°31'0 0.2
2014-Dec-13 20:31N 47°32' W 122°31'0 0.1
2014-Dec-13 19:32N 47°32' W 122°31'0 0.1
2014-Dec-13 18:32N 47°32' W 122°31'0 0.0
2014-Dec-13 17:32N 47°32' W 122°31'0 0.0
2014-Dec-13 16:32N 47°32' W 122°31'0 0.1
2014-Dec-13 15:32N 47°32' W 122°31'0 0.0
2014-Dec-13 14:31N 47°32' W 122°31'0 0.0
2014-Dec-13 13:32N 47°32' W 122°31'0 0.0
2014-Dec-13 12:31N 47°32' W 122°31'0 0.1
2014-Dec-13 11:26N 47°32' W 122°31'0 0.1
2014-Dec-13 10:31N 47°32' W 122°31'0 0.0
2014-Dec-13 09:31N 47°32' W 122°31'0 0.0
2014-Dec-13 08:32N 47°32' W 122°31'0 0.0
2014-Dec-13 07:32N 47°32' W 122°31'0 0.0
2014-Dec-13 06:32N 47°32' W 122°31'0 0.0
2014-Dec-13 05:31N 47°32' W 122°31'0 0.0
2014-Dec-13 04:32N 47°32' W 122°31'0 0.0
2014-Dec-13 03:32N 47°32' W 122°31'0 0.0
2014-Dec-13 02:31N 47°32' W 122°31'0 0.0
2014-Dec-13 01:32N 47°32' W 122°31'0 0.0
2014-Dec-13 00:32N 47°32' W 122°31'0 0.0
2014-Dec-12 23:29N 47°32' W 122°31'0 0.0
2014-Dec-12 22:32N 47°32' W 122°31'0 0.0
2014-Dec-12 21:32N 47°32' W 122°31'0 0.0
2014-Dec-12 20:32N 47°32' W 122°31'0 0.0
2014-Dec-12 19:31N 47°32' W 122°31'0 0.0
2014-Dec-12 18:32N 47°32' W 122°31'0 0.1
2014-Dec-12 17:32N 47°32' W 122°31'0 0.0
2014-Dec-12 16:31N 47°32' W 122°31'0 0.0
2014-Dec-12 15:32N 47°32' W 122°31'0 0.0
2014-Dec-12 14:32N 47°32' W 122°31'0 0.0
2014-Dec-12 13:32N 47°32' W 122°31'0 0.0
2014-Dec-12 12:32N 47°32' W 122°31'0 0.0
2014-Dec-12 11:32N 47°32' W 122°31'0 0.0
2014-Dec-12 10:32N 47°32' W 122°31'0 0.0
2014-Dec-12 09:32N 47°32' W 122°31'0 0.0
2014-Dec-12 08:32N 47°32' W 122°31'0 0.0
2014-Dec-12 07:32N 47°32' W 122°31'0 0.0
2014-Dec-12 06:32N 47°32' W 122°31'0 0.1
2014-Dec-12 05:31N 47°32' W 122°31'0 0.1
2014-Dec-12 04:32N 47°32' W 122°31'0 0.1
2014-Dec-12 03:32N 47°32' W 122°31'0 0.1
2014-Dec-12 02:32N 47°32' W 122°31'0 0.1
2014-Dec-12 01:32N 47°32' W 122°31'0 0.1
2014-Dec-12 00:31N 47°32' W 122°31'0 0.1
2014-Dec-11 23:32N 47°32' W 122°31'0 0.0
2014-Dec-11 22:32N 47°32' W 122°31'0 0.1
2014-Dec-11 21:31N 47°32' W 122°31'0 0.2
2014-Dec-11 20:32N 47°32' W 122°31'0 0.1
2014-Dec-11 19:31N 47°32' W 122°31'0 0.1
2014-Dec-11 18:32N 47°32' W 122°31'0 0.0
2014-Dec-11 17:32N 47°32' W 122°31'0 0.0
2014-Dec-11 16:32N 47°32' W 122°31'0 0.0
2014-Dec-11 15:31N 47°32' W 122°31'0 0.1
2014-Dec-11 14:32N 47°32' W 122°31'0 0.1
2014-Dec-11 13:32N 47°32' W 122°31'0 0.0
2014-Dec-11 12:32N 47°32' W 122°31'0 0.1
2014-Dec-11 11:32N 47°32' W 122°31'0 0.1
2014-Dec-11 10:32N 47°32' W 122°31'0 0.0
2014-Dec-11 09:32N 47°32' W 122°31'0 0.1
2014-Dec-11 08:32N 47°32' W 122°31'0 0.0
2014-Dec-11 07:32N 47°32' W 122°31'0 0.0
2014-Dec-11 06:32N 47°32' W 122°31'0 0.0
2014-Dec-11 05:32N 47°32' W 122°31'0 0.0
2014-Dec-11 04:32N 47°32' W 122°31'0 0.0
2014-Dec-11 03:32N 47°32' W 122°31'0 0.0
2014-Dec-11 02:31N 47°32' W 122°31'0 0.1
2014-Dec-11 01:32N 47°32' W 122°31'0 0.2
2014-Dec-11 00:32N 47°32' W 122°31'0 0.0
2014-Dec-10 23:32N 47°32' W 122°31'0 0.0
2014-Dec-10 22:26N 47°32' W 122°31'0 0.0
2014-Dec-10 21:32N 47°32' W 122°31'0 0.2
2014-Dec-10 20:29N 47°32' W 122°31'0 0.0
2014-Dec-10 19:26N 47°32' W 122°31'0 0.0
2014-Dec-10 18:32N 47°32' W 122°31'0 0.0
2014-Dec-10 17:32N 47°32' W 122°31'0 0.1
2014-Dec-10 16:32N 47°32' W 122°31'0 0.0
2014-Dec-10 15:32N 47°32' W 122°31'0 0.0
2014-Dec-10 14:32N 47°32' W 122°31'0 0.0
2014-Dec-10 13:29N 47°32' W 122°31'0 0.1
2014-Dec-10 12:31N 47°32' W 122°31'0 0.0
2014-Dec-10 11:32N 47°32' W 122°31'0 0.1
2014-Dec-10 10:32N 47°32' W 122°31'0 0.1
2014-Dec-10 09:31N 47°32' W 122°31'0 0.1
2014-Dec-10 08:32N 47°32' W 122°31'0 0.0
2014-Dec-10 07:32N 47°32' W 122°31'0 0.1
2014-Dec-10 06:32N 47°32' W 122°31'0 0.0
2014-Dec-10 05:32N 47°32' W 122°31'0 0.0
2014-Dec-10 04:32N 47°32' W 122°31'0 0.0
2014-Dec-10 03:31N 47°32' W 122°31'0 0.0
2014-Dec-10 02:32N 47°32' W 122°31'0 0.0
2014-Dec-10 01:32N 47°32' W 122°31'0 0.0
2014-Dec-10 00:32N 47°32' W 122°31'0 0.0
2014-Dec-09 23:29N 47°32' W 122°31'0 0.1
2014-Dec-09 22:32N 47°32' W 122°31'0 0.0
2014-Dec-09 21:31N 47°32' W 122°31'0 0.0
2014-Dec-09 20:32N 47°32' W 122°31'0 0.0
2014-Dec-09 19:32N 47°32' W 122°31'0 0.0
2014-Dec-09 18:32N 47°32' W 122°31'0 0.0
2014-Dec-09 17:32N 47°32' W 122°31'0 0.0
2014-Dec-09 16:32N 47°32' W 122°31'0 0.0
2014-Dec-09 15:32N 47°32' W 122°31'0 0.0
2014-Dec-09 14:32N 47°32' W 122°31'0 0.0
2014-Dec-09 13:32N 47°32' W 122°31'0 0.1
2014-Dec-09 12:32N 47°32' W 122°31'0 0.1
2014-Dec-09 11:32N 47°32' W 122°31'0 0.1
2014-Dec-09 10:32N 47°32' W 122°31'0 0.2
2014-Dec-09 09:28N 47°32' W 122°31'0 0.1
2014-Dec-09 08:32N 47°32' W 122°31'0 0.1
2014-Dec-09 07:31N 47°32' W 122°31'0 0.0
2014-Dec-09 06:32N 47°32' W 122°31'0 0.1
2014-Dec-09 05:32N 47°32' W 122°31'0 0.1
2014-Dec-09 04:32N 47°32' W 122°31'  

Dump ship's entire track history